Time;durP1;ratioP1;P1;durP2;ratioP2;P2;SDS_P1;SDS_P2;PMS_P1;PMS_P2;Temp;Humidity;BMP_temperature;BMP_pressure;BME280_temperature;BME280_humidity;BME280_pressure;Samples;Min_cycle;Max_cycle;Signal;HPM_P1;HPM_P2
2021/10/21 00:01:56;;;;;;;7.00;5.20;;;;;;;12.32;62.02;97563.66;114252;1202;22462;-86
2021/10/21 00:04:37;;;;;;;8.00;6.00;;;;;;;12.35;61.88;97566.27;113871;1195;137497;-85
2021/10/21 00:07:04;;;;;;;8.70;5.90;;;;;;;12.35;62.13;97566.16;113678;1202;22562;-87
2021/10/21 00:09:44;;;;;;;8.10;5.70;;;;;;;12.34;62.31;97572.11;113716;1202;137335;-84
2021/10/21 00:12:25;;;;;;;10.20;6.30;;;;;;;12.32;62.38;97572.45;113608;1203;22528;-84
2021/10/21 00:15:09;;;;;;;8.30;6.10;;;;;;;12.27;62.31;97570.50;114242;1196;22435;-84
2021/10/21 00:17:36;;;;;;;8.00;6.00;;;;;;;12.23;62.45;97560.85;113833;1202;137680;-84
2021/10/21 00:20:07;;;;;;;11.20;6.40;;;;;;;12.17;62.63;97556.92;113458;1202;24142;-85
2021/10/21 00:22:34;;;;;;;8.00;6.00;;;;;;;12.09;63.08;97549.54;113773;1202;137747;-85
2021/10/21 00:25:01;;;;;;;8.70;6.20;;;;;;;12.03;63.70;97546.55;114426;1195;22464;-85
2021/10/21 00:27:28;;;;;;;8.10;4.70;;;;;;;11.95;63.90;97536.63;113977;1202;138016;-84
2021/10/21 00:29:54;;;;;;;10.70;5.70;;;;;;;11.90;63.99;97530.04;113638;1202;22491;-84
2021/10/21 00:32:21;;;;;;;11.50;6.50;;;;;;;11.86;64.64;97533.08;113963;1202;24281;-84
2021/10/21 00:34:48;;;;;;;9.00;6.20;;;;;;;11.82;64.47;97538.60;113666;1196;138289;-84
2021/10/21 00:37:15;;;;;;;8.40;5.90;;;;;;;11.80;64.30;97535.48;114613;1202;22460;-84
2021/10/21 00:39:42;;;;;;;8.90;5.80;;;;;;;11.79;64.02;97540.08;113823;1202;137466;-84
2021/10/21 00:42:09;;;;;;;10.20;6.30;;;;;;;11.78;64.12;97538.83;113725;1202;22456;-84
2021/10/21 00:44:50;;;;;;;9.70;6.30;;;;;;;11.76;64.35;97534.95;113839;1202;23242;-84
2021/10/21 00:47:17;;;;;;;9.20;6.30;;;;;;;11.74;64.18;97535.50;113843;1202;137423;-84
2021/10/21 00:49:44;;;;;;;12.00;6.30;;;;;;;11.71;64.10;97535.67;114503;1202;22439;-84
2021/10/21 00:52:11;;;;;;;10.30;6.50;;;;;;;11.68;64.20;97531.47;113864;1202;137296;-85
2021/10/21 00:54:40;;;;;;;8.50;5.70;;;;;;;11.64;64.35;97533.94;114377;1195;22421;-84
2021/10/21 00:57:10;;;;;;;10.60;5.80;;;;;;;11.61;63.92;97534.11;114028;1202;22609;-86
2021/10/21 00:59:39;;;;;;;6.90;5.40;;;;;;;11.59;63.97;97530.72;113799;1202;137156;-84
2021/10/21 01:02:06;;;;;;;10.00;6.20;;;;;;;11.57;63.65;97517.76;113916;1202;22581;-84
2021/10/21 01:04:33;;;;;;;8.00;5.80;;;;;;;11.56;63.71;97508.92;114406;1201;138141;-85
2021/10/21 01:07:01;;;;;;;9.70;6.00;;;;;;;11.55;63.57;97504.51;114069;1195;24058;-84
2021/10/21 01:09:30;;;;;;;8.20;5.60;;;;;;;11.55;63.35;97498.77;113550;1202;137540;-86
2021/10/21 01:12:12;;;;;;;8.60;6.20;;;;;;;11.54;63.81;97490.43;114283;1201;22469;-84
2021/10/21 01:14:42;;;;;;;8.50;5.90;;;;;;;11.53;63.86;97489.46;114185;1200;24111;-84
2021/10/21 01:17:23;;;;;;;7.60;5.60;;;;;;;11.47;64.10;97483.40;113778;1202;137531;-84
2021/10/21 01:19:50;;;;;;;9.70;5.90;;;;;;;11.46;64.52;97484.77;113836;1196;22483;-84
2021/10/21 01:22:17;;;;;;;8.80;6.10;;;;;;;11.41;64.67;97477.03;113638;1203;137316;-84
2021/10/21 01:24:58;;;;;;;9.80;5.70;;;;;;;11.36;65.14;97474.36;113832;1203;22461;-84
2021/10/21 01:27:25;;;;;;;9.30;5.90;;;;;;;11.34;65.10;97474.20;114557;1194;137768;-84
2021/10/21 01:29:52;;;;;;;10.80;6.90;;;;;;;11.31;65.51;97467.23;114022;1202;22469;-84
2021/10/21 01:32:36;;;;;;;10.80;7.20;;;;;;;11.28;65.91;97464.79;114077;1196;24350;-84
2021/10/21 01:35:04;;;;;;;9.00;6.20;;;;;;;11.24;66.00;97461.35;114205;1202;137307;-84
2021/10/21 01:37:31;;;;;;;10.10;6.50;;;;;;;11.19;66.14;97459.77;114131;1195;23177;-84
2021/10/21 01:40:16;;;;;;;7.90;6.50;;;;;;;11.16;66.31;97451.93;113599;1203;138474;-84
2021/10/21 01:42:44;;;;;;;13.70;6.80;;;;;;;11.12;66.77;97448.60;113811;1202;24024;-84
2021/10/21 01:45:32;;;;;;;10.30;6.90;;;;;;;11.08;66.42;97452.31;113916;1202;137680;-84
2021/10/21 01:48:13;;;;;;;9.90;6.80;;;;;;;11.02;66.47;97453.19;113604;1201;30721;-84
2021/10/21 01:50:39;;;;;;;9.50;7.00;;;;;;;10.98;66.51;97449.21;114543;1202;22460;-84
2021/10/21 01:53:20;;;;;;;8.80;6.60;;;;;;;10.93;67.04;97444.91;114390;1202;137209;-84
2021/10/21 01:55:47;;;;;;;8.00;6.10;;;;;;;10.91;66.53;97438.05;115010;1202;24081;-84
2021/10/21 01:58:14;;;;;;;9.20;6.20;;;;;;;10.90;66.99;97437.11;114736;1202;137966;-84
2021/10/21 02:00:55;;;;;;;9.30;6.70;;;;;;;10.89;67.04;97433.36;114044;1203;22477;-84
2021/10/21 02:03:22;;;;;;;13.10;7.10;;;;;;;10.88;67.27;97429.00;113838;1202;138281;-84
2021/10/21 02:05:49;;;;;;;9.50;6.80;;;;;;;10.88;67.23;97427.52;114709;1202;25211;-84
2021/10/21 02:08:16;;;;;;;13.10;7.00;;;;;;;10.87;67.48;97429.39;114190;1195;22437;-84
2021/10/21 02:10:44;;;;;;;8.80;6.30;;;;;;;10.88;66.93;97425.41;114563;1202;139340;-84
2021/10/21 02:13:25;;;;;;;9.80;6.40;;;;;;;10.90;67.08;97424.20;113975;1202;26236;-84
2021/10/21 02:15:52;;;;;;;10.30;6.90;;;;;;;10.91;66.81;97421.00;113974;1202;137386;-84
2021/10/21 02:18:20;;;;;;;9.20;6.30;;;;;;;10.92;66.73;97412.93;113685;1196;24048;-84
2021/10/21 02:20:48;;;;;;;13.80;6.90;;;;;;;10.94;66.80;97415.81;115010;1202;22444;-84
2021/10/21 02:23:15;;;;;;;11.20;6.80;;;;;;;10.97;66.86;97409.92;115046;1202;137638;-84
2021/10/21 02:25:42;;;;;;;9.10;6.70;;;;;;;10.98;66.60;97399.85;114504;1196;25193;-85
2021/10/21 02:28:09;;;;;;;10.30;7.10;;;;;;;10.97;66.91;97394.84;113961;1196;137110;-84
2021/10/21 02:30:36;;;;;;;8.00;5.60;;;;;;;10.97;66.79;97401.59;113928;1201;22672;-84
2021/10/21 02:33:03;;;;;;;11.60;6.00;;;;;;;10.99;66.77;97407.09;115349;1195;22631;-84
2021/10/21 02:35:30;;;;;;;12.20;6.80;;;;;;;10.99;67.09;97403.21;114275;1202;137316;-84
2021/10/21 02:37:57;;;;;;;9.80;6.80;;;;;;;10.98;67.48;97397.52;114249;1196;22459;-84
2021/10/21 02:40:24;;;;;;;10.20;6.90;;;;;;;10.96;67.52;97401.05;113978;1203;137113;-84
2021/10/21 02:42:52;;;;;;;12.10;6.50;;;;;;;10.94;67.39;97402.63;115212;1203;22497;-85
2021/10/21 02:45:33;;;;;;;9.20;7.40;;;;;;;10.89;67.78;97394.46;114795;1203;137452;-84
2021/10/21 02:48:00;;;;;;;9.40;6.80;;;;;;;10.84;68.25;97386.77;114056;1196;23249;-85
2021/10/21 02:50:27;;;;;;;11.00;7.10;;;;;;;10.78;68.16;97380.73;115087;1201;23184;-84
2021/10/21 02:52:54;;;;;;;10.30;6.60;;;;;;;10.73;68.23;97372.40;114329;1201;137282;-84
2021/10/21 02:55:22;;;;;;;10.60;6.70;;;;;;;10.69;68.46;97365.70;113975;1196;22492;-84
2021/10/21 02:57:49;;;;;;;9.30;6.50;;;;;;;10.66;68.45;97366.74;115418;1196;138077;-84
2021/10/21 03:00:16;;;;;;;10.50;6.80;;;;;;;10.63;68.69;97365.05;114032;1202;22420;-84
2021/10/21 03:02:44;;;;;;;11.10;7.40;;;;;;;10.50;68.74;97365.37;114106;1202;24075;-84
2021/10/21 03:05:11;;;;;;;10.30;7.30;;;;;;;10.38;69.06;97364.73;114592;1202;137726;-84
2021/10/21 03:07:37;;;;;;;13.10;7.50;;;;;;;10.32;69.54;97363.46;114325;1196;22489;-84
2021/10/21 03:10:18;;;;;;;13.50;7.30;;;;;;;10.28;69.45;97354.02;113835;1187;137381;-84
2021/10/21 03:12:45;;;;;;;10.10;7.10;;;;;;;10.24;69.89;97348.83;114538;1202;22612;-84
2021/10/21 03:15:12;;;;;;;9.50;6.70;;;;;;;10.22;69.95;97349.86;113962;1202;22456;-83
2021/10/21 03:17:41;;;;;;;9.80;6.40;;;;;;;10.23;70.23;97349.05;114156;1196;137234;-84
2021/10/21 03:20:12;;;;;;;10.30;7.60;;;;;;;10.24;69.95;97355.20;113839;1190;22458;-85
2021/10/21 03:22:41;;;;;;;11.70;6.90;;;;;;;10.22;70.01;97354.21;114277;1196;137325;-84
2021/10/21 03:25:09;;;;;;;16.00;7.00;;;;;;;10.21;70.31;97348.88;114295;1202;22479;-86
2021/10/21 03:27:49;;;;;;;13.70;8.90;;;;;;;10.18;70.47;97346.88;114274;1203;137542;-84
2021/10/21 03:30:16;;;;;;;11.00;7.90;;;;;;;10.15;70.52;97339.56;113857;1180;22612;-86
2021/10/21 03:32:43;;;;;;;12.70;7.70;;;;;;;10.12;70.81;97338.80;113912;1202;24037;-86
2021/10/21 03:35:10;;;;;;;10.80;7.20;;;;;;;10.09;70.71;97336.08;114564;1202;137404;-84
2021/10/21 03:37:38;;;;;;;12.60;7.00;;;;;;;10.07;70.93;97329.66;114939;1202;22427;-84
2021/10/21 03:40:18;;;;;;;8.80;6.60;;;;;;;10.07;70.61;97333.52;114334;1196;137615;-84
2021/10/21 03:42:45;;;;;;;11.50;7.30;;;;;;;10.06;70.66;97329.88;114392;1202;23607;-84
2021/10/21 03:45:26;;;;;;;15.70;8.50;;;;;;;10.02;70.96;97323.11;113739;1202;138195;-86
2021/10/21 03:48:07;;;;;;;13.10;8.00;;;;;;;9.99;71.21;97327.09;114457;1202;24047;-85
2021/10/21 03:50:34;;;;;;;10.20;7.30;;;;;;;9.95;71.29;97328.98;114710;1195;22469;-84
2021/10/21 03:53:15;;;;;;;13.70;8.50;;;;;;;9.87;71.24;97323.58;115204;1202;137786;-86
2021/10/21 03:55:43;;;;;;;13.70;7.90;;;;;;;9.82;71.70;97319.70;113870;1202;22465;-86
2021/10/21 03:58:10;;;;;;;13.50;7.50;;;;;;;9.80;71.73;97316.00;113912;1202;137871;-84
2021/10/21 04:00:37;;;;;;;11.80;7.40;;;;;;;9.77;71.90;97312.40;113905;1196;22452;-86
2021/10/21 04:03:04;;;;;;;11.70;8.20;;;;;;;9.77;72.24;97312.56;114445;1202;25033;-86
2021/10/21 04:05:31;;;;;;;10.20;7.90;;;;;;;9.76;72.25;97305.45;114031;1197;137720;-86
2021/10/21 04:07:58;;;;;;;11.50;7.90;;;;;;;9.75;72.19;97306.35;114581;1195;22460;-84
2021/10/21 04:10:25;;;;;;;11.20;8.20;;;;;;;9.73;72.40;97304.67;114261;1196;137214;-84
2021/10/21 04:13:06;;;;;;;10.10;7.10;;;;;;;9.69;72.28;97295.97;115019;1202;23923;-86
2021/10/21 04:15:33;;;;;;;9.70;7.20;;;;;;;9.71;72.33;97289.61;115075;1202;138080;-84
2021/10/21 04:18:00;;;;;;;12.10;8.20;;;;;;;9.72;72.50;97291.79;114307;1202;22554;-84
2021/10/21 04:20:26;;;;;;;11.70;8.00;;;;;;;9.74;72.34;97281.73;114557;1202;22394;-86
2021/10/21 04:22:53;;;;;;;14.50;8.60;;;;;;;9.79;72.56;97275.16;113597;1202;137300;-86
2021/10/21 04:25:20;;;;;;;12.60;8.60;;;;;;;9.81;72.78;97275.05;114015;1202;23224;-87
2021/10/21 04:27:47;;;;;;;10.40;7.70;;;;;;;9.82;72.73;97270.55;114283;1202;137413;-84
2021/10/21 04:30:14;;;;;;;11.60;7.60;;;;;;;9.83;72.74;97265.11;114332;1196;24030;-87
2021/10/21 04:32:41;;;;;;;11.80;7.60;;;;;;;9.84;72.65;97258.59;115274;1201;22411;-84
2021/10/21 04:35:09;;;;;;;9.30;6.80;;;;;;;9.86;72.71;97253.52;114860;1202;137863;-84
2021/10/21 04:37:36;;;;;;;10.70;7.30;;;;;;;9.88;72.97;97249.67;114338;1202;22901;-85
2021/10/21 04:40:17;;;;;;;13.70;7.80;;;;;;;9.92;72.97;97246.73;115310;1188;137148;-84
2021/10/21 04:42:44;;;;;;;10.60;8.20;;;;;;;9.95;73.14;97242.33;114658;1202;22431;-84
2021/10/21 04:45:11;;;;;;;10.10;8.00;;;;;;;9.99;72.87;97244.63;113889;1202;22946;-87
2021/10/21 04:47:38;;;;;;;11.50;8.20;;;;;;;10.01;72.74;97237.66;114682;1196;136948;-85
2021/10/21 04:50:05;;;;;;;10.70;7.80;;;;;;;10.03;72.81;97234.18;115369;1196;22431;-85
2021/10/21 04:52:46;;;;;;;11.20;7.30;;;;;;;10.05;72.64;97229.88;114165;1203;137418;-84
2021/10/21 04:55:13;;;;;;;11.40;6.60;;;;;;;10.07;72.64;97225.98;114316;1202;24073;-85
2021/10/21 04:57:40;;;;;;;11.00;6.80;;;;;;;10.08;72.82;97212.31;114774;1202;138418;-85
2021/10/21 05:00:21;;;;;;;11.50;7.80;;;;;;;10.08;73.06;97205.19;114184;1199;22932;-85
2021/10/21 05:02:48;;;;;;;11.80;7.40;;;;;;;10.11;73.07;97203.77;114684;1201;22873;-84
2021/10/21 05:05:15;;;;;;;12.20;8.50;;;;;;;10.11;72.91;97198.98;114097;1202;137326;-85
2021/10/21 05:07:42;;;;;;;9.80;7.70;;;;;;;10.10;73.10;97194.46;114502;1202;22428;-85
2021/10/21 05:10:09;;;;;;;10.70;7.40;;;;;;;10.10;73.55;97190.50;113972;1196;137270;-85
2021/10/21 05:12:50;;;;;;;10.80;7.00;;;;;;;10.10;73.52;97186.41;114940;1203;24125;-84
2021/10/21 05:15:21;;;;;;;13.30;8.10;;;;;;;10.08;73.63;97184.73;114254;1202;24878;-84
2021/10/21 05:17:48;;;;;;;11.30;8.20;;;;;;;10.06;73.59;97185.11;113968;1202;137804;-85
2021/10/21 05:20:15;;;;;;;16.30;9.10;;;;;;;10.04;73.18;97182.02;115435;1196;22455;-85
2021/10/21 05:22:55;;;;;;;13.50;9.10;;;;;;;10.01;73.31;97182.51;114278;1196;137812;-85
2021/10/21 05:25:22;;;;;;;14.60;9.00;;;;;;;9.97;73.33;97180.60;114098;1202;22431;-85
2021/10/21 05:27:49;;;;;;;13.50;8.60;;;;;;;9.92;73.50;97177.23;114509;1202;137262;-85
2021/10/21 05:30:16;;;;;;;25.20;13.20;;;;;;;9.86;73.47;97178.98;114638;1196;22515;-84
2021/10/21 05:32:43;;;;;;;23.00;12.00;;;;;;;9.80;73.40;97170.76;114417;1202;24180;-84
2021/10/21 05:35:10;;;;;;;17.90;10.60;;;;;;;9.75;73.59;97167.83;113950;1202;140348;-84
2021/10/21 05:37:37;;;;;;;15.80;9.50;;;;;;;9.70;73.78;97157.71;114514;1202;22496;-84
2021/10/21 05:40:06;;;;;;;13.90;9.10;;;;;;;9.66;74.01;97154.11;113878;1202;138026;-85
2021/10/21 05:42:33;;;;;;;13.60;9.40;;;;;;;9.63;74.12;97144.33;114608;1196;22292;-85
2021/10/21 05:45:00;;;;;;;14.90;9.70;;;;;;;9.60;74.38;97135.47;114505;1202;22529;-84
2021/10/21 05:47:27;;;;;;;16.60;9.20;;;;;;;9.59;74.52;97132.59;114182;1202;137198;-86
2021/10/21 05:49:54;;;;;;;14.90;9.20;;;;;;;9.60;74.56;97138.24;115096;1202;22619;-84
2021/10/21 05:52:24;;;;;;;18.90;9.10;;;;;;;9.63;74.67;97139.55;114666;1195;137498;-85
2021/10/21 05:54:53;;;;;;;14.30;10.40;;;;;;;9.66;74.31;97142.14;113886;1201;22475;-86
2021/10/21 05:57:20;;;;;;;19.30;10.80;;;;;;;9.69;74.46;97139.27;115357;1202;22458;-86
2021/10/21 05:59:47;;;;;;;17.40;11.10;;;;;;;9.72;74.30;97139.71;115462;1202;137593;-84
2021/10/21 06:02:15;;;;;;;24.00;11.20;;;;;;;9.73;74.42;97141.02;114696;1194;23744;-83
2021/10/21 06:04:42;;;;;;;23.00;11.70;;;;;;;9.71;74.21;97139.00;114871;1202;137413;-83
2021/10/21 06:07:23;;;;;;;22.10;11.20;;;;;;;9.71;74.38;97133.35;113662;1203;23054;-86
2021/10/21 06:09:56;;;;;;;19.20;11.80;;;;;;;9.72;74.52;97131.56;114291;1202;137932;-84
2021/10/21 06:12:26;;;;;;;17.20;10.90;;;;;;;9.73;74.78;97125.90;115935;1197;22457;-84
2021/10/21 06:14:53;;;;;;;20.00;11.90;;;;;;;9.74;74.83;97113.02;114416;1202;23764;-84
2021/10/21 06:17:23;;;;;;;15.00;10.20;;;;;;;9.77;74.70;97109.50;114565;1202;138523;-84
2021/10/21 06:19:50;;;;;;;17.80;10.20;;;;;;;9.78;74.64;97104.10;114380;1202;24113;-84
2021/10/21 06:22:18;;;;;;;17.60;9.80;;;;;;;9.79;74.64;97098.77;113666;1181;137519;-84
2021/10/21 06:24:46;;;;;;;15.10;9.20;;;;;;;9.80;74.74;97096.91;115454;1201;22438;-84
2021/10/21 06:27:27;;;;;;;16.70;9.20;;;;;;;9.84;74.81;97095.73;113777;1202;138218;-87
2021/10/21 06:29:55;;;;;;;23.10;11.60;;;;;;;9.87;74.89;97093.86;113961;1202;22473;-86
2021/10/21 06:32:22;;;;;;;28.80;14.50;;;;;;;9.81;74.27;97086.80;114291;1196;24193;-84
2021/10/21 06:34:48;;;;;;;22.40;14.60;;;;;;;9.72;74.50;97082.67;114251;1202;137485;-86
2021/10/21 06:37:15;;;;;;;23.60;13.40;;;;;;;9.68;75.00;97086.53;113962;1202;24122;-84
2021/10/21 06:39:43;;;;;;;27.50;12.70;;;;;;;9.66;74.97;97089.26;113870;1188;137782;-85
2021/10/21 06:42:10;;;;;;;27.90;14.00;;;;;;;9.62;75.17;97091.77;113848;1196;23250;-85
2021/10/21 06:44:37;;;;;;;22.40;11.80;;;;;;;9.58;75.46;97090.95;114184;1202;22434;-84
2021/10/21 06:47:03;;;;;;;22.10;13.00;;;;;;;9.54;75.72;97081.77;114054;1202;138126;-84
2021/10/21 06:49:30;;;;;;;25.00;12.80;;;;;;;9.57;75.81;97079.54;114107;1202;23154;-84
2021/10/21 06:51:58;;;;;;;27.50;13.60;;;;;;;9.61;76.04;97079.36;113806;1202;138047;-84
2021/10/21 06:54:38;;;;;;;28.20;14.30;;;;;;;9.66;76.07;97081.87;113991;1203;31489;-85
2021/10/21 06:57:05;;;;;;;20.60;12.00;;;;;;;9.73;76.03;97072.23;114178;1202;22480;-84
2021/10/21 06:59:32;;;;;;;21.40;10.70;;;;;;;9.80;76.45;97060.64;114078;1202;138181;-85
2021/10/21 07:02:14;;;;;;;17.50;9.80;;;;;;;9.89;76.56;97048.55;114076;1202;22460;-84
2021/10/21 07:04:41;;;;;;;24.30;11.90;;;;;;;9.97;76.69;97038.85;115246;1196;137108;-84
2021/10/21 07:07:08;;;;;;;39.10;11.70;;;;;;;10.06;76.59;97032.47;114451;1202;22377;-85
2021/10/21 07:09:35;;;;;;;30.30;11.40;;;;;;;10.16;76.06;97023.68;114002;1202;138064;-85
2021/10/21 07:12:03;;;;;;;30.90;12.50;;;;;;;10.26;76.27;97011.35;114536;1202;23208;-84
2021/10/21 07:14:30;;;;;;;23.60;12.00;;;;;;;10.38;75.79;97009.86;114501;1196;22553;-85
2021/10/21 07:16:57;;;;;;;27.10;10.20;;;;;;;10.52;75.36;97017.08;114984;1202;138528;-85
2021/10/21 07:19:37;;;;;;;27.70;10.80;;;;;;;10.68;75.09;97008.92;114769;1202;22572;-85
2021/10/21 07:22:04;;;;;;;20.20;11.10;;;;;;;10.83;74.58;96999.08;114933;1202;138178;-85
2021/10/21 07:24:31;;;;;;;18.40;11.60;;;;;;;10.98;73.99;96994.95;114332;1195;22452;-84
2021/10/21 07:27:12;;;;;;;19.90;11.50;;;;;;;11.13;73.83;97009.98;114566;1202;22429;-85
2021/10/21 07:29:39;;;;;;;18.40;11.60;;;;;;;11.26;73.54;97017.40;114429;1202;137785;-84
2021/10/21 07:32:06;;;;;;;19.40;11.70;;;;;;;11.38;73.35;97012.73;114162;1202;24569;-84
2021/10/21 07:34:35;;;;;;;20.80;11.70;;;;;;;11.49;73.05;97022.12;114635;1196;137788;-85
2021/10/21 07:37:02;;;;;;;22.10;12.50;;;;;;;11.59;72.97;97029.34;114812;1202;22470;-87
2021/10/21 07:39:29;;;;;;;27.10;14.40;;;;;;;11.69;72.40;97028.52;114718;1202;137774;-85
2021/10/21 07:42:00;;;;;;;29.20;13.70;;;;;;;11.78;72.80;97030.56;113606;1202;25886;-85
2021/10/21 07:44:33;;;;;;;27.70;12.70;;;;;;;11.87;72.60;97034.27;114200;1196;26369;-85
2021/10/21 07:47:01;;;;;;;34.40;14.90;;;;;;;11.97;71.97;97038.64;114623;1201;137837;-85
2021/10/21 07:49:29;;;;;;;35.70;14.90;;;;;;;12.06;71.74;97039.15;114290;1202;24032;-85
2021/10/21 07:51:58;;;;;;;33.30;16.00;;;;;;;12.17;71.76;97037.23;114813;1202;138147;-85
2021/10/21 07:54:29;;;;;;;28.60;14.00;;;;;;;12.29;71.40;97037.59;113871;1196;25035;-84
2021/10/21 07:57:11;;;;;;;29.50;15.00;;;;;;;12.38;71.05;97031.85;113473;1203;22884;-85
2021/10/21 07:59:39;;;;;;;27.10;14.30;;;;;;;12.46;70.93;97024.11;113631;1202;137806;-84
2021/10/21 08:02:06;;;;;;;22.20;11.40;;;;;;;12.56;70.40;97020.91;113772;1202;22458;-82
2021/10/21 08:04:33;;;;;;;15.60;11.20;;;;;;;12.66;70.17;97011.95;113575;1202;137627;-84
2021/10/21 08:07:14;;;;;;;17.50;10.10;;;;;;;12.76;69.78;96990.71;113576;1202;22562;-84
2021/10/21 08:09:41;;;;;;;17.90;9.50;;;;;;;12.83;69.38;96976.84;113527;1201;138153;-82
2021/10/21 08:12:09;;;;;;;20.10;9.60;;;;;;;12.92;69.25;96974.80;113603;1196;26271;-84
2021/10/21 08:14:36;;;;;;;15.70;9.30;;;;;;;13.01;69.06;96979.52;114726;1197;25089;-84
2021/10/21 08:17:03;;;;;;;11.90;9.10;;;;;;;13.12;68.93;96977.42;113813;1202;137591;-86
2021/10/21 08:19:33;;;;;;;19.30;9.30;;;;;;;13.24;68.77;96964.07;113678;1202;22428;-87
2021/10/21 08:22:02;;;;;;;13.20;9.30;;;;;;;13.37;68.28;96972.52;114248;1202;138282;-85
2021/10/21 08:24:29;;;;;;;14.60;9.10;;;;;;;13.51;67.28;96970.69;114353;1196;22439;-83
2021/10/21 08:26:56;;;;;;;15.70;10.10;;;;;;;13.65;66.84;96978.54;113920;1202;24178;-84
2021/10/21 08:29:23;;;;;;;17.30;10.00;;;;;;;13.80;66.45;96982.37;113986;1202;137956;-84
2021/10/21 08:32:02;;;;;;;18.90;10.10;;;;;;;13.95;66.25;96986.67;114327;1202;24117;-84
2021/10/21 08:34:43;;;;;;;16.00;11.10;;;;;;;14.11;65.74;96989.48;114867;1196;137530;-84
2021/10/21 08:37:10;;;;;;;14.60;10.60;;;;;;;14.23;65.41;96987.44;114114;1203;23308;-86
2021/10/21 08:39:42;;;;;;;23.70;11.40;;;;;;;14.36;65.05;97000.42;113742;1203;137673;-85
2021/10/21 08:42:23;;;;;;;18.00;10.30;;;;;;;14.51;65.15;97009.06;113868;1202;22644;-83
2021/10/21 08:44:50;;;;;;;22.00;11.20;;;;;;;14.62;65.28;97022.16;114382;1196;22443;-85
2021/10/21 08:47:22;;;;;;;13.60;9.80;;;;;;;14.74;64.80;97026.28;114111;1197;137691;-84
2021/10/21 08:49:49;;;;;;;11.40;9.00;;;;;;;14.89;64.54;97018.01;114677;1196;25143;-84
2021/10/21 08:52:17;;;;;;;15.20;9.20;;;;;;;15.02;64.36;97012.52;113992;1202;137232;-85
2021/10/21 08:54:44;;;;;;;16.90;9.80;;;;;;;15.14;63.70;97024.06;114382;1196;25258;-85
2021/10/21 08:57:12;;;;;;;12.60;9.50;;;;;;;15.27;63.41;97038.19;114129;1203;23119;-84
2021/10/21 08:59:44;;;;;;;15.70;9.40;;;;;;;15.40;62.81;97040.46;114088;1203;137686;-83
2021/10/21 09:02:22;;;;;;;13.20;9.70;;;;;;;15.57;62.41;97041.55;114395;1203;25014;-83
2021/10/21 09:07:56;;;;;;;10.80;7.90;;;;;;;15.94;61.72;97048.04;113635;1202;31705;-86
2021/10/21 09:10:24;;;;;;;11.90;8.90;;;;;;;16.02;60.92;97058.70;113964;1201;137495;-84
2021/10/21 09:13:05;;;;;;;12.20;8.30;;;;;;;16.09;61.10;97069.50;113997;1203;22455;-85
2021/10/21 09:15:51;;;;;;;14.70;9.30;;;;;;;16.23;60.48;97073.90;114165;1195;138030;-85
2021/10/21 09:18:18;;;;;;;11.10;7.60;;;;;;;16.44;60.75;97076.86;114353;1202;22534;-83
2021/10/21 09:20:48;;;;;;;7.80;6.80;;;;;;;16.62;60.12;97080.59;114037;1190;25218;-85
2021/10/21 09:23:18;;;;;;;10.30;8.00;;;;;;;16.75;59.14;97083.08;114091;1201;137597;-84
2021/10/21 09:25:46;;;;;;;15.30;9.50;;;;;;;16.84;59.26;97084.81;115057;1200;22590;-85
2021/10/21 09:28:25;;;;;;;14.50;9.50;;;;;;;16.96;59.64;97093.13;114209;1197;137390;-85
2021/10/21 09:31:04;;;;;;;11.90;8.40;;;;;;;17.04;59.59;97090.23;114389;1202;22452;-85
2021/10/21 09:33:50;;;;;;;13.80;9.20;;;;;;;17.10;59.26;97077.40;114250;1202;137956;-86
2021/10/21 09:36:21;;;;;;;15.60;8.20;;;;;;;17.16;58.56;97075.36;114248;1195;25211;-86
2021/10/21 09:38:51;;;;;;;21.50;8.50;;;;;;;17.15;57.86;97068.95;114333;1202;24041;-84
2021/10/21 09:41:20;;;;;;;15.70;8.60;;;;;;;17.12;57.55;97063.70;113919;1202;137413;-86
2021/10/21 09:43:48;;;;;;;12.70;8.60;;;;;;;17.11;58.19;97063.61;114487;1202;22438;-85
2021/10/21 09:46:30;;;;;;;11.90;8.60;;;;;;;17.16;58.50;97060.18;114018;1196;137812;-86
2021/10/21 09:49:25;;;;;;;12.30;9.90;;;;;;;17.22;57.39;97051.23;115944;1201;22398;-84
2021/10/21 09:51:52;;;;;;;16.90;9.70;;;;;;;17.24;57.64;97042.96;114606;1196;137767;-85
2021/10/21 09:54:20;;;;;;;13.90;9.60;;;;;;;17.28;57.95;97051.39;114265;1187;25083;-84
2021/10/21 09:57:05;;;;;;;11.00;8.60;;;;;;;17.32;57.48;97051.42;114398;1197;22588;-84
2021/10/21 10:00:04;;;;;;;16.70;10.30;;;;;;;17.35;57.12;97061.23;114175;1202;137185;-85
2021/10/21 10:02:39;;;;;;;14.40;9.90;;;;;;;17.37;56.30;97062.21;113833;1203;25048;-83
2021/10/21 10:05:08;;;;;;;12.00;9.10;;;;;;;17.36;55.70;97064.02;113448;1202;137359;-84
2021/10/21 10:07:35;;;;;;;15.10;11.10;;;;;;;17.38;56.26;97063.33;113871;1196;25331;-85
2021/10/21 10:10:04;;;;;;;15.60;10.60;;;;;;;17.39;56.46;97061.41;114542;1197;137760;-85
2021/10/21 10:12:32;;;;;;;;;;;;;;;17.37;57.09;97072.43;114713;1202;24040;-84
2021/10/21 10:15:00;;;;;;;9.40;7.80;;;;;;;17.31;56.70;97076.09;113921;1202;26632;-84
2021/10/21 10:17:29;;;;;;;15.10;9.60;;;;;;;17.23;56.61;97092.14;113687;1196;137263;-84
2021/10/21 10:19:57;;;;;;;17.30;10.30;;;;;;;17.18;57.21;97098.73;113343;1203;24172;-83
2021/10/21 10:22:34;;;;;;;17.10;9.80;;;;;;;17.14;57.52;97097.30;113932;1202;138238;-84
2021/10/21 10:25:17;;;;;;;17.00;9.30;;;;;;;17.15;57.50;97098.31;114181;1202;22442;-84
2021/10/21 10:28:01;;;;;;;18.70;9.20;;;;;;;17.19;57.70;97097.54;113357;1202;137498;-86
2021/10/21 10:30:40;;;;;;;11.80;8.70;;;;;;;17.22;57.84;97100.65;114111;1202;25386;-86
2021/10/21 10:33:07;;;;;;;12.90;10.30;;;;;;;17.23;57.11;97104.31;114101;1202;25186;-85
2021/10/21 10:35:41;;;;;;;14.00;10.20;;;;;;;17.20;57.00;97103.39;114039;1202;137738;-86
2021/10/21 10:38:38;;;;;;;16.40;10.20;;;;;;;17.16;57.27;97108.41;114402;1196;23108;-86
2021/10/21 10:41:48;;;;;;;14.00;10.10;;;;;;;17.10;57.23;97108.27;113942;1203;137813;-86
2021/10/21 10:44:33;;;;;;;15.40;9.70;;;;;;;17.04;57.58;97113.73;113986;1203;22447;-84
2021/10/21 10:47:05;;;;;;;13.30;9.90;;;;;;;16.98;57.68;97119.24;113619;1197;137459;-86
2021/10/21 10:49:41;;;;;;;17.40;10.90;;;;;;;16.93;57.82;97127.19;113855;1197;30187;-87
2021/10/21 10:52:11;;;;;;;23.20;10.80;;;;;;;16.88;58.15;97130.02;113485;1202;137850;-85
2021/10/21 10:55:02;;;;;;;17.90;10.80;;;;;;;16.83;58.37;97125.98;114512;1202;22450;-86
2021/10/21 10:57:50;;;;;;;17.20;10.90;;;;;;;16.77;58.74;97126.73;113978;1202;22469;-84
2021/10/21 11:00:46;;;;;;;15.40;9.20;;;;;;;16.75;58.70;97124.38;114387;1196;30663;-85
2021/10/21 11:03:14;;;;;;;14.10;10.60;;;;;;;16.74;58.50;97126.09;113572;1202;22619;-83
2021/10/21 11:05:43;;;;;;;13.60;9.80;;;;;;;16.76;58.51;97121.61;114755;1202;137561;-85
2021/10/21 11:08:47;;;;;;;14.30;9.70;;;;;;;16.80;58.49;97131.06;114152;1202;22489;-85
2021/10/21 11:11:33;;;;;;;;;;;;;;;16.83;58.38;97146.65;114411;1202;137309;-83
2021/10/21 11:14:05;;;;;;;12.80;8.10;;;;;;;16.84;58.40;97151.69;114589;1202;22460;-85
2021/10/21 11:16:56;;;;;;;12.10;8.40;;;;;;;16.86;58.63;97154.05;114056;1196;137493;-84
2021/10/21 11:19:43;;;;;;;13.10;7.50;;;;;;;16.88;58.72;97145.03;113707;1203;22498;-84
2021/10/21 11:22:30;;;;;;;12.00;6.60;;;;;;;16.86;57.00;97136.95;114083;1202;137612;-82
2021/10/21 11:25:13;;;;;;;27.90;6.70;;;;;;;16.80;56.38;97132.59;114085;1202;23007;-84
2021/10/21 11:27:55;;;;;;;11.30;5.90;;;;;;;16.72;56.37;97130.61;113710;1203;25126;-84
2021/10/21 11:30:37;;;;;;;9.00;5.20;;;;;;;16.61;56.03;97120.52;114213;1196;137585;-84
2021/10/21 11:33:19;;;;;;;11.60;6.00;;;;;;;16.47;56.02;97123.42;114101;1202;22442;-84
2021/10/21 11:35:46;;;;;;;12.40;6.40;;;;;;;16.40;56.31;97130.45;113890;1202;137338;-84
2021/10/21 11:38:18;;;;;;;8.20;5.10;;;;;;;16.31;56.77;97134.13;113904;1202;24159;-84
2021/10/21 11:40:55;;;;;;;8.00;5.40;;;;;;;16.22;56.66;97128.70;113960;1196;138144;-83